createdAt,value
2022-09-27T00:00:10.023Z,0.60
2022-09-27T00:02:40.317Z,0.45
2022-09-27T00:05:09.670Z,0.70
2022-09-27T00:07:37.292Z,0.70
2022-09-27T00:10:05.407Z,0.70
2022-09-27T00:12:33.043Z,0.70
2022-09-27T00:15:01.116Z,0.63
2022-09-27T00:17:28.749Z,0.63
2022-09-27T00:19:57.095Z,0.50
2022-09-27T00:22:26.613Z,0.55
2022-09-27T00:24:54.305Z,0.60
2022-09-27T00:27:22.132Z,0.65
2022-09-27T00:29:49.759Z,0.80
2022-09-27T00:32:17.389Z,0.70
2022-09-27T00:34:45.032Z,0.98
2022-09-27T00:37:12.833Z,1.02
2022-09-27T00:39:42.303Z,0.90
2022-09-27T00:42:11.205Z,0.82
2022-09-27T00:44:59.430Z,0.63
2022-09-27T00:47:28.794Z,0.90
2022-09-27T00:49:58.101Z,0.52
2022-09-27T00:52:28.540Z,0.65
2022-09-27T00:55:01.540Z,0.90
2022-09-27T00:57:29.538Z,0.90
2022-09-27T01:00:00.255Z,0.60
2022-09-27T01:02:28.317Z,1.00
2022-09-27T01:04:56.801Z,0.63
2022-09-27T01:07:24.425Z,0.90
2022-09-27T01:09:52.432Z,1.13
2022-09-27T01:12:24.285Z,0.80
2022-09-27T01:14:58.708Z,0.28
2022-09-27T01:17:32.356Z,0.70
2022-09-27T01:20:17.331Z,0.52
2022-09-27T01:22:50.668Z,0.32
2022-09-27T01:25:28.912Z,0.30
2022-09-27T01:28:10.334Z,0.22
2022-09-27T01:30:44.173Z,0.52
2022-09-27T01:33:15.692Z,0.20
2022-09-27T01:35:50.379Z,0.22
2022-09-27T01:38:23.136Z,0.50
2022-09-27T01:40:54.263Z,0.32
2022-09-27T01:43:56.398Z,0.30
2022-09-27T01:46:32.365Z,0.50
2022-09-27T01:49:14.620Z,0.50
2022-09-27T01:51:44.453Z,1.00
2022-09-27T01:54:13.628Z,0.20
2022-09-27T01:56:47.400Z,0.40
2022-09-27T01:59:22.503Z,0.30
2022-09-27T02:02:03.836Z,0.30
2022-09-27T02:04:49.360Z,0.15
2022-09-27T02:07:24.525Z,0.30
2022-09-27T02:09:56.801Z,0.60
2022-09-27T02:12:32.714Z,0.25
2022-09-27T02:15:02.265Z,0.40
2022-09-27T02:17:41.483Z,0.40
2022-09-27T02:20:12.913Z,0.70
2022-09-27T02:22:48.749Z,0.10
2022-09-27T02:25:19.925Z,0.20
2022-09-27T02:27:52.313Z,0.40
2022-09-27T02:30:21.422Z,0.20
2022-09-27T02:32:56.785Z,0.45
2022-09-27T02:35:26.398Z,0.30
2022-09-27T02:37:54.851Z,0.32
2022-09-27T02:40:22.695Z,0.30
2022-09-27T02:42:50.738Z,0.30
2022-09-27T02:45:19.724Z,0.30
2022-09-27T02:47:56.951Z,0.45
2022-09-27T02:50:33.369Z,0.30
2022-09-27T02:53:39.830Z,0.30
2022-09-27T02:56:29.245Z,0.10
2022-09-27T02:59:21.434Z,0.20
2022-09-27T03:02:14.276Z,0.20
2022-09-27T03:05:09.128Z,0.20
2022-09-27T03:07:38.602Z,0.20
2022-09-27T03:10:07.165Z,0.20
2022-09-27T03:12:35.043Z,0.40
2022-09-27T03:15:03.157Z,0.25
2022-09-27T03:18:00.230Z,0.20
2022-09-27T03:20:57.269Z,0.22
2022-09-27T03:23:27.810Z,0.20
2022-09-27T03:25:55.899Z,0.28
2022-09-27T03:28:24.342Z,0.60
2022-09-27T03:30:52.310Z,0.38
2022-09-27T03:33:38.868Z,0.45
2022-09-27T03:36:09.425Z,0.50
2022-09-27T03:38:38.392Z,0.50
2022-09-27T03:41:08.760Z,0.40
2022-09-27T03:43:36.700Z,0.20
2022-09-27T03:46:05.251Z,0.47
2022-09-27T03:48:33.265Z,0.25
2022-09-27T03:51:00.853Z,0.30
2022-09-27T03:53:30.003Z,0.30
2022-09-27T03:55:58.979Z,0.30
2022-09-27T03:58:27.168Z,0.43
2022-09-27T04:00:55.026Z,0.30
2022-09-27T04:03:23.358Z,0.30
2022-09-27T04:06:20.137Z,0.25
2022-09-27T04:08:48.328Z,0.30
2022-09-27T04:11:17.642Z,0.32
2022-09-27T04:13:48.802Z,0.50
2022-09-27T04:16:17.581Z,0.60
2022-09-27T04:18:53.011Z,0.40
2022-09-27T04:21:40.848Z,0.57
2022-09-27T04:24:11.859Z,0.45
2022-09-27T04:26:43.332Z,0.30
2022-09-27T04:29:16.022Z,0.30
2022-09-27T04:31:49.959Z,0.30
2022-09-27T04:34:57.442Z,0.30
2022-09-27T04:37:28.412Z,0.85
2022-09-27T04:40:02.530Z,0.40
2022-09-27T04:42:34.054Z,0.22
2022-09-27T04:45:02.095Z,0.28
2022-09-27T04:47:30.166Z,0.40
2022-09-27T04:49:58.083Z,0.30
2022-09-27T04:52:25.942Z,0.60
2022-09-27T04:54:53.569Z,0.47
2022-09-27T04:57:21.410Z,0.52
2022-09-27T04:59:51.003Z,0.73
2022-09-27T05:02:18.830Z,1.50
2022-09-27T05:05:06.724Z,1.10
2022-09-27T05:07:39.071Z,0.77
2022-09-27T05:10:11.697Z,1.20
2022-09-27T05:12:39.365Z,0.95
2022-09-27T05:15:09.523Z,1.38
2022-09-27T05:17:39.929Z,1.00
2022-09-27T05:20:40.574Z,1.63
2022-09-27T05:23:13.811Z,1.50
2022-09-27T05:25:42.677Z,1.63
2022-09-27T05:28:10.470Z,1.20
2022-09-27T05:30:39.737Z,1.10
2022-09-27T05:33:16.095Z,1.27
2022-09-27T05:35:53.087Z,1.80
2022-09-27T05:38:22.629Z,1.35
2022-09-27T05:40:52.043Z,1.48
2022-09-27T05:43:19.993Z,1.70
2022-09-27T05:45:49.069Z,1.58
2022-09-27T05:48:19.780Z,1.38
2022-09-27T05:50:55.067Z,2.45
2022-09-27T05:53:23.395Z,2.13
2022-09-27T05:55:51.637Z,1.90
2022-09-27T05:58:23.531Z,1.90
2022-09-27T06:01:01.078Z,1.60
2022-09-27T06:03:49.974Z,1.45
2022-09-27T06:06:40.170Z,2.00
2022-09-27T06:09:10.925Z,1.92
2022-09-27T06:11:41.773Z,2.08
2022-09-27T06:14:13.072Z,1.95
2022-09-27T06:16:55.086Z,1.95
2022-09-27T06:19:25.732Z,1.17
2022-09-27T06:21:56.056Z,2.22
2022-09-27T06:24:25.139Z,1.58
2022-09-27T06:26:52.769Z,1.98
2022-09-27T06:29:35.713Z,1.50
2022-09-27T06:32:06.937Z,1.60
2022-09-27T06:34:42.465Z,1.85
2022-09-27T06:37:10.452Z,1.33
2022-09-27T06:39:38.253Z,1.25
2022-09-27T06:42:30.452Z,1.80
2022-09-27T06:45:21.395Z,1.50
2022-09-27T06:48:10.869Z,1.17
2022-09-27T06:50:57.938Z,0.77
2022-09-27T06:53:25.752Z,0.85
2022-09-27T06:55:53.701Z,1.20
2022-09-27T06:58:39.934Z,0.73
2022-09-27T07:01:36.962Z,1.48
2022-09-27T07:04:25.290Z,0.75
2022-09-27T07:07:07.781Z,0.75
2022-09-27T07:09:40.709Z,0.52
2022-09-27T07:12:08.601Z,0.63
2022-09-27T07:14:36.315Z,0.47
2022-09-27T07:17:05.633Z,0.60
2022-09-27T07:19:41.580Z,0.85
2022-09-27T07:22:10.304Z,0.70
2022-09-27T07:24:39.038Z,0.30
2022-09-27T07:27:07.629Z,0.45
2022-09-27T07:29:35.296Z,0.70
2022-09-27T07:32:03.175Z,0.95
2022-09-27T07:34:30.805Z,0.63
2022-09-27T07:37:01.637Z,0.43
2022-09-27T07:39:29.743Z,0.40
2022-09-27T07:41:57.389Z,0.35
2022-09-27T07:44:25.176Z,0.32
2022-09-27T07:47:12.753Z,0.55
2022-09-27T07:49:58.708Z,0.43
2022-09-27T07:52:52.074Z,0.50
2022-09-27T07:55:37.249Z,0.50
2022-09-27T07:58:19.193Z,0.60
2022-09-27T08:00:47.691Z,0.55
2022-09-27T08:03:17.507Z,0.30
2022-09-27T08:05:47.446Z,0.40
2022-09-27T08:08:17.681Z,0.20
2022-09-27T08:10:47.581Z,0.57
2022-09-27T08:13:18.001Z,0.30
2022-09-27T08:15:45.657Z,0.60
2022-09-27T08:18:13.333Z,1.00
2022-09-27T08:21:03.927Z,0.30
2022-09-27T08:23:53.931Z,0.20
2022-09-27T08:26:25.015Z,0.45
2022-09-27T08:29:06.839Z,0.50
2022-09-27T08:31:39.768Z,0.93
2022-09-27T08:34:08.771Z,0.20
2022-09-27T08:36:37.749Z,0.77
2022-09-27T08:39:06.920Z,0.57
2022-09-27T08:41:47.674Z,0.20
2022-09-27T08:44:20.054Z,0.28
2022-09-27T08:47:03.664Z,0.20
2022-09-27T08:49:34.454Z,0.30
2022-09-27T08:52:02.481Z,0.10
2022-09-27T08:54:32.452Z,0.63
2022-09-27T08:57:03.702Z,0.10
2022-09-27T08:59:33.721Z,0.10
2022-09-27T09:02:01.480Z,0.20
2022-09-27T09:04:34.496Z,0.40
2022-09-27T09:07:09.543Z,0.30
2022-09-27T09:09:44.865Z,0.50
2022-09-27T09:12:43.557Z,0.73
2022-09-27T09:15:23.183Z,1.08
2022-09-27T09:18:00.372Z,0.47
2022-09-27T09:20:55.861Z,0.95
2022-09-27T09:23:41.161Z,0.50
2022-09-27T09:26:13.865Z,0.40
2022-09-27T09:28:49.465Z,0.25
2022-09-27T09:31:22.042Z,0.22
2022-09-27T09:33:51.867Z,0.50
2022-09-27T09:36:25.037Z,0.20
2022-09-27T09:38:55.031Z,0.20
2022-09-27T09:41:27.741Z,0.40
2022-09-27T09:43:58.168Z,0.30
2022-09-27T09:46:28.115Z,0.43
2022-09-27T09:48:59.743Z,0.25
2022-09-27T09:51:29.915Z,0.25
2022-09-27T09:53:59.858Z,0.28
2022-09-27T09:56:35.557Z,0.55
2022-09-27T09:59:05.684Z,0.77
2022-09-27T10:01:43.881Z,0.80
2022-09-27T10:04:13.502Z,0.60
2022-09-27T10:06:41.480Z,0.22
2022-09-27T10:09:10.688Z,0.57
2022-09-27T10:11:45.732Z,0.90
2022-09-27T10:14:31.873Z,0.85
2022-09-27T10:17:06.959Z,0.85
2022-09-27T10:19:37.312Z,1.00
2022-09-27T10:22:13.688Z,1.30
2022-09-27T10:24:54.033Z,0.75
2022-09-27T10:27:42.559Z,0.43
2022-09-27T10:30:22.904Z,1.33
2022-09-27T10:32:52.596Z,0.82
2022-09-27T10:35:40.325Z,1.15
2022-09-27T10:38:28.581Z,1.80
2022-09-27T10:41:17.576Z,1.90
2022-09-27T10:43:47.144Z,1.60
2022-09-27T10:46:35.408Z,1.60
2022-09-27T10:49:20.169Z,1.52
2022-09-27T10:51:51.721Z,1.60
2022-09-27T10:54:23.815Z,1.35
2022-09-27T10:56:59.442Z,1.52
2022-09-27T10:59:30.695Z,1.00
2022-09-27T11:01:59.159Z,0.80
2022-09-27T11:04:40.209Z,0.60
2022-09-27T11:07:18.418Z,0.95
2022-09-27T11:09:52.771Z,0.38
2022-09-27T11:12:22.983Z,0.47
2022-09-27T11:14:56.149Z,0.40
2022-09-27T11:17:27.929Z,0.70
2022-09-27T11:20:19.267Z,0.20
2022-09-27T11:23:19.933Z,0.15
2022-09-27T11:25:56.401Z,0.22
2022-09-27T11:28:31.612Z,0.30
2022-09-27T11:31:05.890Z,0.20
2022-09-27T11:33:48.825Z,0.30
2022-09-27T11:36:25.500Z,0.40
2022-09-27T11:39:01.862Z,0.40
2022-09-27T11:41:41.064Z,0.40
2022-09-27T11:44:29.552Z,0.40
2022-09-27T11:47:04.033Z,0.73
2022-09-27T11:49:40.183Z,0.20
2022-09-27T11:52:22.261Z,0.40
2022-09-27T11:54:56.309Z,0.40
2022-09-27T11:57:26.566Z,0.40
2022-09-27T12:00:07.942Z,0.50
2022-09-27T12:03:01.419Z,0.55
2022-09-27T12:05:33.316Z,0.40
2022-09-27T12:08:16.904Z,0.40
2022-09-27T12:10:48.066Z,0.40
2022-09-27T12:13:17.672Z,0.40
2022-09-27T12:15:47.990Z,0.50
2022-09-27T12:18:21.802Z,0.38
2022-09-27T12:20:49.953Z,0.30
2022-09-27T12:23:21.325Z,0.40
2022-09-27T12:26:11.204Z,0.30
2022-09-27T12:28:44.305Z,0.40
2022-09-27T12:31:31.761Z,0.35
2022-09-27T12:34:04.877Z,0.43
2022-09-27T12:36:38.464Z,0.52
2022-09-27T12:39:12.167Z,0.30
2022-09-27T12:41:43.419Z,0.20
2022-09-27T12:44:22.515Z,0.50
2022-09-27T12:46:56.420Z,0.50
2022-09-27T12:49:30.238Z,0.40
2022-09-27T12:51:59.626Z,0.30
2022-09-27T12:54:35.118Z,0.40
2022-09-27T12:57:04.528Z,0.60
2022-09-27T12:59:50.047Z,0.40
2022-09-27T13:02:23.227Z,0.20
2022-09-27T13:05:01.968Z,0.40
2022-09-27T13:07:36.200Z,0.40
2022-09-27T13:10:17.342Z,0.30
2022-09-27T13:12:49.993Z,0.20
2022-09-27T13:15:20.235Z,0.30
2022-09-27T13:17:53.144Z,0.20
2022-09-27T13:20:42.527Z,0.25
2022-09-27T13:24:01.302Z,0.28
2022-09-27T13:26:51.171Z,0.20
2022-09-27T13:29:26.181Z,0.40
2022-09-27T13:32:18.437Z,0.75
2022-09-27T13:35:12.881Z,0.35
2022-09-27T13:37:55.342Z,0.20
2022-09-27T13:40:31.463Z,0.30
2022-09-27T13:43:41.520Z,0.22
2022-09-27T13:46:32.390Z,0.40
2022-09-27T13:49:00.549Z,0.40
2022-09-27T13:51:44.594Z,0.30
2022-09-27T13:54:27.329Z,0.50
2022-09-27T13:56:56.520Z,0.30
2022-09-27T13:59:28.199Z,0.32
2022-09-27T14:02:20.286Z,0.22
2022-09-27T14:04:51.347Z,0.30
2022-09-27T14:07:24.078Z,0.10
2022-09-27T14:09:54.232Z,0.20
2022-09-27T14:12:29.407Z,0.22
2022-09-27T14:14:58.065Z,0.30
2022-09-27T14:17:26.311Z,0.30
2022-09-27T14:19:55.998Z,0.20
2022-09-27T14:22:25.158Z,0.32
2022-09-27T14:25:04.009Z,0.25
2022-09-27T14:27:39.905Z,0.40
2022-09-27T14:30:25.043Z,0.20
2022-09-27T14:33:01.583Z,0.40
2022-09-27T14:36:06.525Z,0.20
2022-09-27T14:38:38.110Z,0.15
2022-09-27T14:41:12.366Z,0.40
2022-09-27T14:43:44.871Z,0.32
2022-09-27T14:46:25.515Z,0.20
2022-09-27T14:48:53.197Z,0.20
2022-09-27T14:51:22.005Z,0.55
2022-09-27T14:53:50.732Z,0.60
2022-09-27T14:56:19.432Z,0.40
2022-09-27T14:58:48.614Z,0.95
2022-09-27T15:01:17.193Z,0.77
2022-09-27T15:03:46.117Z,1.20
2022-09-27T15:06:13.930Z,0.50
2022-09-27T15:08:41.804Z,0.60
2022-09-27T15:11:10.545Z,0.75
2022-09-27T15:13:38.520Z,0.68
2022-09-27T15:16:10.512Z,0.55
2022-09-27T15:18:42.322Z,0.38
2022-09-27T15:21:11.085Z,1.08
2022-09-27T15:23:39.809Z,0.80
2022-09-27T15:26:11.289Z,0.50
2022-09-27T15:28:42.955Z,0.65
2022-09-27T15:31:12.238Z,0.60
2022-09-27T15:33:39.808Z,0.95
2022-09-27T15:36:08.565Z,0.55
2022-09-27T15:38:37.800Z,0.73
2022-09-27T15:41:06.964Z,0.90
2022-09-27T15:43:36.016Z,1.00
2022-09-27T15:46:04.894Z,0.68
2022-09-27T15:48:35.441Z,0.50
2022-09-27T15:51:03.230Z,0.60
2022-09-27T15:53:43.938Z,0.85
2022-09-27T15:56:13.712Z,0.70
2022-09-27T15:58:41.330Z,0.80
2022-09-27T16:01:09.406Z,0.75
2022-09-27T16:03:38.384Z,1.15
2022-09-27T16:06:06.049Z,0.80
2022-09-27T16:08:33.607Z,0.63
2022-09-27T16:11:03.271Z,0.60
2022-09-27T16:13:33.188Z,0.90
2022-09-27T16:16:01.231Z,0.60
2022-09-27T16:18:30.917Z,1.20
2022-09-27T16:21:00.021Z,0.65
2022-09-27T16:23:27.697Z,1.02
2022-09-27T16:25:55.234Z,0.75
2022-09-27T16:28:22.836Z,0.70
2022-09-27T16:30:50.430Z,0.95
2022-09-27T16:33:18.153Z,1.08
2022-09-27T16:35:45.701Z,0.90
2022-09-27T16:38:14.622Z,0.82
2022-09-27T16:40:42.275Z,0.40
2022-09-27T16:43:09.877Z,0.63
2022-09-27T16:45:37.634Z,0.30
2022-09-27T16:48:05.287Z,0.32
2022-09-27T16:50:50.218Z,0.40
2022-09-27T16:53:19.277Z,0.30
2022-09-27T16:55:46.857Z,0.40
2022-09-27T16:58:14.596Z,0.80
2022-09-27T17:00:43.206Z,0.30
2022-09-27T17:03:10.901Z,0.63
2022-09-27T17:05:38.503Z,0.43
2022-09-27T17:08:06.124Z,0.73
2022-09-27T17:10:35.827Z,0.40
2022-09-27T17:13:03.544Z,0.38
2022-09-27T17:15:31.363Z,0.30
2022-09-27T17:17:58.926Z,0.70
2022-09-27T17:20:26.497Z,0.45
2022-09-27T17:22:54.074Z,0.60
2022-09-27T17:25:21.715Z,0.73
2022-09-27T17:27:50.665Z,0.63
2022-09-27T17:30:19.846Z,0.60
2022-09-27T17:32:47.387Z,0.68
2022-09-27T17:35:15.727Z,0.50
2022-09-27T17:37:43.484Z,0.90
2022-09-27T17:40:12.354Z,0.88
2022-09-27T17:42:39.905Z,0.93
2022-09-27T17:45:09.771Z,0.60
2022-09-27T17:47:54.661Z,0.80
2022-09-27T17:50:28.786Z,0.65
2022-09-27T17:52:57.845Z,0.50
2022-09-27T17:55:25.796Z,0.82
2022-09-27T17:57:53.648Z,0.88
2022-09-27T18:00:22.649Z,0.90
2022-09-27T18:02:50.327Z,1.17
2022-09-27T18:05:20.979Z,1.00
2022-09-27T18:07:48.576Z,1.20
2022-09-27T18:10:17.644Z,0.55
2022-09-27T18:12:45.381Z,1.10
2022-09-27T18:15:13.109Z,0.70
2022-09-27T18:17:43.338Z,0.50
2022-09-27T18:20:11.171Z,0.60
2022-09-27T18:22:38.878Z,1.15
2022-09-27T18:25:06.908Z,0.47
2022-09-27T18:27:34.730Z,0.80
2022-09-27T18:30:03.375Z,1.15
2022-09-27T18:32:30.914Z,0.55
2022-09-27T18:34:59.858Z,0.30
2022-09-27T18:37:27.672Z,1.15
2022-09-27T18:39:55.619Z,0.32
2022-09-27T18:42:23.195Z,0.60
2022-09-27T18:44:50.967Z,0.40
2022-09-27T18:47:18.676Z,0.82
2022-09-27T18:49:46.220Z,0.73
2022-09-27T18:52:15.130Z,1.25
2022-09-27T18:54:43.592Z,0.32
2022-09-27T18:57:11.156Z,0.30
2022-09-27T18:59:38.705Z,0.47
2022-09-27T19:02:06.324Z,1.23
2022-09-27T19:04:34.020Z,1.13
2022-09-27T19:07:01.862Z,1.30
2022-09-27T19:09:31.301Z,0.90
2022-09-27T19:11:58.861Z,0.82
2022-09-27T19:14:26.884Z,1.08
2022-09-27T19:16:54.529Z,2.10
2022-09-27T19:19:22.203Z,2.00
2022-09-27T19:21:50.028Z,1.35
2022-09-27T19:24:18.823Z,1.25
2022-09-27T19:26:47.807Z,1.90
2022-09-27T19:29:15.435Z,1.08
2022-09-27T19:31:43.304Z,1.00
2022-09-27T19:34:11.824Z,1.00
2022-09-27T19:36:39.416Z,1.13
2022-09-27T19:39:07.036Z,1.15
2022-09-27T19:41:34.600Z,1.00
2022-09-27T19:44:03.861Z,1.60
2022-09-27T19:46:31.484Z,1.10
2022-09-27T19:49:01.115Z,1.20
2022-09-27T19:51:28.915Z,1.70
2022-09-27T19:53:56.875Z,1.63
2022-09-27T19:56:24.862Z,1.98
2022-09-27T19:58:52.624Z,1.40
2022-09-27T20:01:22.313Z,1.25
2022-09-27T20:03:50.808Z,1.33
2022-09-27T20:06:19.877Z,1.55
2022-09-27T20:08:48.294Z,1.40
2022-09-27T20:11:16.746Z,1.30
2022-09-27T20:13:44.736Z,1.38
2022-09-27T20:16:13.408Z,1.50
2022-09-27T20:18:42.805Z,1.35
2022-09-27T20:21:10.577Z,1.80
2022-09-27T20:23:38.533Z,1.55
2022-09-27T20:26:08.022Z,1.38
2022-09-27T20:28:35.665Z,1.38
2022-09-27T20:31:03.834Z,1.45
2022-09-27T20:33:46.412Z,1.42
2022-09-27T20:36:15.904Z,1.10
2022-09-27T20:38:44.214Z,1.75
2022-09-27T20:41:12.392Z,1.45
2022-09-27T20:43:40.251Z,1.63
2022-09-27T20:46:08.732Z,1.58
2022-09-27T20:48:37.504Z,1.25
2022-09-27T20:51:05.429Z,1.23
2022-09-27T20:53:34.736Z,1.20
2022-09-27T20:56:03.546Z,1.20
2022-09-27T20:58:31.683Z,1.20
2022-09-27T21:01:06.693Z,1.20
2022-09-27T21:03:34.673Z,1.55
2022-09-27T21:06:02.508Z,1.13
2022-09-27T21:08:30.870Z,1.05
2022-09-27T21:11:05.763Z,1.35
2022-09-27T21:13:33.428Z,1.00
2022-09-27T21:16:01.726Z,1.08
2022-09-27T21:18:29.513Z,1.15
2022-09-27T21:21:00.634Z,0.80
2022-09-27T21:23:29.836Z,1.15
2022-09-27T21:26:06.795Z,1.42
2022-09-27T21:28:35.067Z,1.00
2022-09-27T21:31:03.666Z,1.00
2022-09-27T21:33:31.818Z,1.42
2022-09-27T21:35:59.487Z,0.88
2022-09-27T21:38:27.123Z,1.20
2022-09-27T21:40:55.395Z,0.80
2022-09-27T21:43:27.485Z,1.42
2022-09-27T21:45:55.209Z,1.02
2022-09-27T21:48:22.861Z,1.30
2022-09-27T21:50:50.510Z,1.02
2022-09-27T21:53:18.209Z,0.98
2022-09-27T21:55:54.639Z,1.25
2022-09-27T21:58:22.285Z,1.40
2022-09-27T22:00:51.446Z,1.10
2022-09-27T22:03:20.310Z,1.20
2022-09-27T22:05:48.518Z,1.08
2022-09-27T22:08:16.855Z,1.63
2022-09-27T22:10:44.986Z,1.08
2022-09-27T22:13:12.746Z,1.30
2022-09-27T22:15:40.726Z,1.10
2022-09-27T22:18:09.867Z,1.35
2022-09-27T22:20:37.565Z,1.02
2022-09-27T22:23:05.237Z,1.33
2022-09-27T22:25:32.903Z,1.33
2022-09-27T22:28:00.699Z,1.45
2022-09-27T22:30:28.679Z,1.30
2022-09-27T22:32:56.393Z,1.50
2022-09-27T22:35:26.278Z,1.50
2022-09-27T22:37:53.940Z,1.35
2022-09-27T22:40:21.627Z,1.50
2022-09-27T22:42:49.325Z,1.50
2022-09-27T22:45:18.336Z,1.60
2022-09-27T22:47:46.052Z,1.08
2022-09-27T22:50:13.746Z,1.63
2022-09-27T22:52:42.783Z,1.35
2022-09-27T22:55:10.715Z,1.45
2022-09-27T22:57:38.378Z,1.58
2022-09-27T23:00:07.198Z,1.20
2022-09-27T23:02:34.827Z,1.42
2022-09-27T23:05:02.529Z,1.40
2022-09-27T23:07:30.153Z,1.45
2022-09-27T23:09:59.496Z,1.70
2022-09-27T23:12:27.165Z,1.70
2022-09-27T23:14:54.814Z,1.30
2022-09-27T23:17:22.442Z,1.60
2022-09-27T23:19:50.098Z,0.85
2022-09-27T23:22:17.762Z,2.22
2022-09-27T23:24:45.406Z,1.67
2022-09-27T23:27:34.231Z,2.00
2022-09-27T23:30:01.937Z,1.70
2022-09-27T23:32:31.827Z,1.90
2022-09-27T23:34:59.704Z,1.70
2022-09-27T23:37:27.422Z,1.85
2022-09-27T23:39:55.085Z,1.80
2022-09-27T23:42:24.317Z,1.73
2022-09-27T23:44:53.477Z,1.90
2022-09-27T23:47:21.145Z,1.30
2022-09-27T23:49:48.800Z,1.13
2022-09-27T23:52:16.473Z,1.40
2022-09-27T23:54:44.128Z,1.60
2022-09-27T23:57:11.786Z,1.27
2022-09-27T23:59:40.844Z,1.10
